SUMZM TFFJ-TDCF

Flight info

Callsign SUMZM
Flight time 0h 50m
Altitude 21000
Route SKB A517 PPR
Aircraft PC12/L-SDFGRWY/S

Departure

Time 2026-05-07 19:55
Airport St. Jean Airport (TFFJ)

Arrival

Time 2026-05-07 20:46
Airport Canefield Airport (TDCF)
Time Latitude Longitude Altitude Speed Heading
2026-05-07 19:48 17.90376 -62.84467 41 ft 0 kts 267°
2026-05-07 19:51 17.90376 -62.84480 42 ft 5 kts 271°
2026-05-07 19:51 17.90379 -62.84528 45 ft 7 kts 275°
2026-05-07 19:51 17.90384 -62.84581 49 ft 10 kts 271°
2026-05-07 19:52 17.90402 -62.84636 46 ft 4 kts 309°
2026-05-07 19:52 17.90436 -62.84644 45 ft 8 kts 55°
2026-05-07 19:52 17.90432 -62.84603 45 ft 0 kts 87°
2026-05-07 19:54 17.90433 -62.84594 46 ft 13 kts 87°
2026-05-07 19:54 17.90447 -62.84249 28 ft 78 kts 91°
2026-05-07 19:55 17.90451 -62.83604 253 ft 92 kts 78°
2026-05-07 19:55 17.90605 -62.82921 630 ft 100 kts 75°
2026-05-07 19:55 17.90774 -62.82228 1144 ft 105 kts 77°
2026-05-07 19:55 17.90981 -62.81331 1443 ft 144 kts 77°
2026-05-07 19:56 17.91105 -62.80209 1826 ft 168 kts 99°
2026-05-07 19:56 17.90444 -62.79140 2213 ft 189 kts 142°
2026-05-07 19:56 17.89150 -62.78714 2571 ft 206 kts 178°
2026-05-07 19:56 17.87723 -62.78970 2939 ft 210 kts 189°
2026-05-07 19:57 17.86274 -62.79135 3309 ft 211 kts 177°
2026-05-07 19:57 17.84808 -62.79026 3669 ft 210 kts 171°
2026-05-07 19:57 17.83349 -62.78866 4031 ft 211 kts 173°
2026-05-07 19:57 17.81881 -62.78738 4398 ft 212 kts 174°
2026-05-07 19:58 17.80411 -62.78622 4766 ft 212 kts 174°
2026-05-07 19:58 17.78936 -62.78503 5132 ft 213 kts 174°
2026-05-07 19:58 17.77471 -62.78381 5487 ft 214 kts 174°
2026-05-07 19:58 17.75990 -62.78258 5853 ft 215 kts 174°
2026-05-07 19:59 17.74491 -62.78134 6229 ft 216 kts 174°
2026-05-07 19:59 17.72992 -62.78009 6584 ft 217 kts 174°
2026-05-07 19:59 17.71484 -62.77884 6934 ft 218 kts 174°
2026-05-07 19:59 17.69974 -62.77758 7287 ft 218 kts 175°
2026-05-07 20:00 17.68454 -62.77632 7646 ft 218 kts 175°
2026-05-07 20:00 17.66935 -62.77506 8005 ft 219 kts 175°
2026-05-07 20:00 17.65416 -62.77380 8370 ft 219 kts 175°
2026-05-07 20:00 17.63890 -62.77253 8736 ft 220 kts 175°
2026-05-07 20:01 17.62365 -62.77126 9108 ft 220 kts 175°
2026-05-07 20:01 17.60851 -62.77000 9480 ft 221 kts 176°
2026-05-07 20:01 17.59318 -62.76873 9866 ft 221 kts 176°
2026-05-07 20:01 17.57783 -62.76745 10213 ft 222 kts 176°
2026-05-07 20:02 17.56242 -62.76617 10564 ft 222 kts 176°
2026-05-07 20:02 17.54704 -62.76489 10910 ft 222 kts 176°
2026-05-07 20:02 17.53157 -62.76361 11260 ft 223 kts 176°
2026-05-07 20:02 17.51614 -62.76233 11619 ft 223 kts 176°
2026-05-07 20:03 17.50066 -62.76105 11979 ft 223 kts 176°
2026-05-07 20:03 17.48519 -62.75976 12341 ft 223 kts 176°
2026-05-07 20:03 17.46964 -62.75847 12714 ft 223 kts 176°
2026-05-07 20:03 17.45416 -62.75718 13087 ft 224 kts 176°
2026-05-07 20:04 17.43863 -62.75590 13469 ft 224 kts 176°
2026-05-07 20:04 17.42306 -62.75460 13847 ft 224 kts 176°
2026-05-07 20:04 17.40752 -62.75332 14188 ft 224 kts 176°
2026-05-07 20:04 17.39195 -62.75202 14523 ft 225 kts 176°
2026-05-07 20:05 17.37631 -62.75071 14874 ft 225 kts 176°
2026-05-07 20:05 17.36065 -62.74941 15224 ft 226 kts 176°
2026-05-07 20:05 17.34493 -62.74811 15581 ft 227 kts 176°
2026-05-07 20:05 17.32917 -62.74680 15945 ft 226 kts 176°
2026-05-07 20:06 17.31354 -62.74550 16304 ft 225 kts 175°
2026-05-07 20:06 17.29867 -62.74160 16668 ft 224 kts 155°
2026-05-07 20:06 17.28570 -62.73251 17042 ft 222 kts 134°
2026-05-07 20:06 17.27545 -62.72061 17415 ft 220 kts 129°
2026-05-07 20:07 17.26538 -62.70874 17791 ft 220 kts 130°
2026-05-07 20:07 17.25506 -62.69665 18185 ft 221 kts 129°
2026-05-07 20:07 17.24495 -62.68476 18540 ft 221 kts 129°
2026-05-07 20:07 17.23476 -62.67275 18846 ft 221 kts 129°
2026-05-07 20:08 17.22452 -62.66069 19188 ft 221 kts 129°
2026-05-07 20:08 17.21426 -62.64861 19531 ft 222 kts 130°
2026-05-07 20:08 17.20399 -62.63652 19876 ft 222 kts 130°
2026-05-07 20:08 17.19370 -62.62440 20228 ft 222 kts 130°
2026-05-07 20:09 17.18340 -62.61228 20592 ft 223 kts 130°
2026-05-07 20:09 17.17310 -62.60016 20942 ft 224 kts 130°
2026-05-07 20:09 17.16242 -62.58758 21020 ft 239 kts 130°
2026-05-07 20:10 17.14326 -62.56507 21027 ft 258 kts 130°
2026-05-07 20:10 17.13108 -62.55077 21029 ft 266 kts 130°
2026-05-07 20:10 17.11458 -62.53138 21030 ft 272 kts 130°
2026-05-07 20:10 17.10609 -62.52141 21032 ft 274 kts 130°
2026-05-07 20:11 17.08915 -62.50150 21030 ft 277 kts 130°
2026-05-07 20:11 17.07629 -62.48641 21029 ft 278 kts 130°
2026-05-07 20:11 17.06340 -62.47126 21029 ft 279 kts 130°
2026-05-07 20:11 17.05049 -62.45611 21030 ft 279 kts 131°
2026-05-07 20:12 17.04175 -62.44584 21030 ft 280 kts 131°
2026-05-07 20:12 17.02896 -62.43083 21028 ft 280 kts 131°
2026-05-07 20:12 17.01597 -62.41558 21030 ft 280 kts 131°
2026-05-07 20:12 17.00301 -62.40039 21032 ft 280 kts 131°
2026-05-07 20:13 16.99010 -62.38524 21030 ft 280 kts 131°
2026-05-07 20:13 16.97707 -62.36996 21031 ft 280 kts 131°
2026-05-07 20:13 16.96423 -62.35490 21026 ft 280 kts 131°
2026-05-07 20:13 16.95127 -62.33971 21028 ft 280 kts 131°
2026-05-07 20:14 16.93826 -62.32446 21028 ft 280 kts 131°
2026-05-07 20:14 16.92527 -62.30925 21027 ft 280 kts 131°
2026-05-07 20:14 16.91226 -62.29400 21026 ft 280 kts 131°
2026-05-07 20:14 16.89932 -62.27885 21026 ft 280 kts 131°
2026-05-07 20:15 16.88631 -62.26361 21029 ft 280 kts 131°
2026-05-07 20:15 16.87329 -62.24837 21027 ft 281 kts 131°
2026-05-07 20:15 16.86031 -62.23318 21027 ft 281 kts 131°
2026-05-07 20:15 16.84751 -62.21820 21026 ft 280 kts 131°
2026-05-07 20:16 16.83451 -62.20299 21027 ft 280 kts 131°
2026-05-07 20:16 16.82153 -62.18781 21028 ft 280 kts 131°
2026-05-07 20:16 16.80851 -62.17258 21026 ft 281 kts 131°
2026-05-07 20:16 16.79550 -62.15738 21026 ft 280 kts 131°
2026-05-07 20:17 16.78251 -62.14219 21027 ft 280 kts 131°
2026-05-07 20:17 16.76951 -62.12700 21057 ft 280 kts 131°
2026-05-07 20:17 16.75649 -62.11178 21056 ft 281 kts 131°
2026-05-07 20:17 16.74349 -62.09660 21055 ft 281 kts 131°
2026-05-07 20:18 16.73048 -62.08141 21052 ft 280 kts 131°
2026-05-07 20:18 16.71764 -62.06642 21050 ft 280 kts 131°
2026-05-07 20:18 16.70465 -62.05126 21046 ft 280 kts 131°
2026-05-07 20:18 16.69150 -62.03590 21044 ft 280 kts 131°
2026-05-07 20:19 16.67853 -62.02078 21040 ft 280 kts 131°
2026-05-07 20:19 16.66568 -62.00579 21038 ft 280 kts 131°
2026-05-07 20:19 16.65272 -61.99067 21035 ft 280 kts 131°
2026-05-07 20:19 16.63974 -61.97554 21031 ft 280 kts 131°
2026-05-07 20:20 16.62677 -61.96042 21029 ft 280 kts 131°
2026-05-07 20:20 16.61377 -61.94526 21024 ft 280 kts 131°
2026-05-07 20:20 16.60074 -61.93008 21024 ft 280 kts 131°
2026-05-07 20:20 16.58776 -61.91495 21021 ft 280 kts 131°
2026-05-07 20:21 16.57495 -61.90003 21020 ft 280 kts 131°
2026-05-07 20:21 16.56178 -61.88469 21016 ft 280 kts 131°
2026-05-07 20:21 16.54881 -61.86958 21015 ft 280 kts 131°
2026-05-07 20:21 16.53577 -61.85441 21015 ft 280 kts 131°
2026-05-07 20:22 16.52276 -61.83927 21014 ft 280 kts 131°
2026-05-07 20:22 16.50996 -61.82437 21014 ft 280 kts 131°
2026-05-07 20:22 16.49690 -61.80918 21013 ft 280 kts 131°
2026-05-07 20:22 16.48392 -61.79408 21012 ft 280 kts 131°
2026-05-07 20:23 16.47090 -61.77894 21011 ft 280 kts 131°
2026-05-07 20:23 16.45792 -61.76385 21012 ft 280 kts 131°
2026-05-07 20:23 16.44487 -61.74867 21011 ft 280 kts 131°
2026-05-07 20:23 16.43187 -61.73357 21009 ft 280 kts 131°
2026-05-07 20:24 16.41880 -61.71839 21009 ft 280 kts 131°
2026-05-07 20:24 16.40580 -61.70329 21008 ft 280 kts 131°
2026-05-07 20:24 16.39278 -61.68816 21008 ft 280 kts 131°
2026-05-07 20:24 16.37980 -61.67309 21006 ft 280 kts 132°
2026-05-07 20:25 16.36677 -61.65797 21003 ft 280 kts 132°
2026-05-07 20:25 16.35376 -61.64286 21002 ft 280 kts 132°
2026-05-07 20:25 16.34092 -61.62796 21002 ft 280 kts 132°
2026-05-07 20:25 16.32790 -61.61286 21000 ft 280 kts 132°
2026-05-07 20:26 16.31493 -61.59782 20999 ft 280 kts 132°
2026-05-07 20:26 16.30192 -61.58273 21002 ft 280 kts 132°
2026-05-07 20:26 16.28887 -61.56760 21002 ft 280 kts 132°
2026-05-07 20:26 16.27563 -61.55304 20998 ft 279 kts 139°
2026-05-07 20:27 16.25941 -61.54211 20997 ft 278 kts 156°
2026-05-07 20:27 16.24107 -61.53618 20991 ft 276 kts 172°
2026-05-07 20:27 16.22205 -61.53317 20992 ft 276 kts 173°
2026-05-07 20:27 16.20307 -61.53018 20992 ft 276 kts 173°
2026-05-07 20:28 16.18405 -61.52712 20990 ft 276 kts 173°
2026-05-07 20:28 16.16513 -61.52408 20989 ft 276 kts 173°
2026-05-07 20:28 16.14612 -61.52104 20993 ft 276 kts 173°
2026-05-07 20:28 16.12715 -61.51801 20992 ft 276 kts 173°
2026-05-07 20:29 16.10818 -61.51498 20994 ft 276 kts 173°
2026-05-07 20:29 16.08924 -61.51195 20995 ft 276 kts 173°
2026-05-07 20:29 16.07023 -61.50891 20996 ft 276 kts 173°
2026-05-07 20:29 16.05126 -61.50588 20999 ft 276 kts 173°
2026-05-07 20:30 16.03224 -61.50284 21000 ft 276 kts 173°
2026-05-07 20:30 16.01346 -61.49984 21001 ft 276 kts 173°
2026-05-07 20:30 15.99453 -61.49682 21001 ft 276 kts 173°
2026-05-07 20:30 15.97551 -61.49362 21002 ft 276 kts 172°
2026-05-07 20:31 15.95655 -61.49027 21003 ft 276 kts 172°
2026-05-07 20:31 15.93760 -61.48699 21005 ft 276 kts 172°
2026-05-07 20:31 15.91934 -61.48383 20998 ft 254 kts 172°
2026-05-07 20:31 15.90279 -61.48094 20910 ft 231 kts 172°
2026-05-07 20:32 15.88711 -61.47822 20542 ft 225 kts 172°
2026-05-07 20:32 15.87176 -61.47556 20182 ft 220 kts 172°
2026-05-07 20:32 15.85673 -61.47294 19832 ft 217 kts 172°
2026-05-07 20:32 15.84193 -61.47036 19485 ft 214 kts 172°
2026-05-07 20:33 15.82763 -61.46787 19149 ft 211 kts 172°
2026-05-07 20:33 15.81316 -61.46535 18811 ft 209 kts 171°
2026-05-07 20:33 15.79893 -61.46287 18480 ft 207 kts 171°
2026-05-07 20:33 15.78471 -61.46040 18120 ft 206 kts 171°
2026-05-07 20:34 15.77062 -61.45795 17732 ft 204 kts 171°
2026-05-07 20:34 15.75665 -61.45551 17352 ft 203 kts 171°
2026-05-07 20:34 15.74269 -61.45308 16923 ft 204 kts 171°
2026-05-07 20:34 15.72849 -61.45062 16434 ft 209 kts 171°
2026-05-07 20:35 15.71425 -61.44814 15959 ft 211 kts 171°
2026-05-07 20:35 15.69968 -61.44560 15486 ft 213 kts 170°
2026-05-07 20:35 15.68504 -61.44305 15018 ft 214 kts 170°
2026-05-07 20:35 15.67036 -61.44050 14555 ft 212 kts 170°
2026-05-07 20:36 15.65642 -61.43808 14100 ft 194 kts 170°
2026-05-07 20:36 15.64382 -61.43589 13637 ft 175 kts 170°
2026-05-07 20:36 15.63217 -61.43387 13128 ft 166 kts 170°
2026-05-07 20:36 15.62096 -61.43191 12666 ft 161 kts 170°
2026-05-07 20:37 15.61014 -61.43003 12279 ft 154 kts 170°
2026-05-07 20:37 15.59977 -61.42822 11938 ft 152 kts 169°
2026-05-07 20:37 15.58939 -61.42642 11578 ft 150 kts 170°
2026-05-07 20:37 15.57918 -61.42464 11222 ft 147 kts 169°
2026-05-07 20:38 15.56912 -61.42290 10868 ft 147 kts 170°
2026-05-07 20:38 15.55907 -61.42115 10525 ft 144 kts 170°
2026-05-07 20:38 15.54963 -61.41951 10190 ft 132 kts 170°
2026-05-07 20:38 15.54074 -61.41796 9832 ft 127 kts 170°
2026-05-07 20:39 15.53253 -61.41654 9449 ft 112 kts 169°
2026-05-07 20:39 15.52493 -61.41522 9075 ft 110 kts 169°
2026-05-07 20:39 15.51744 -61.41392 8709 ft 109 kts 169°
2026-05-07 20:39 15.50992 -61.41261 8329 ft 109 kts 169°
2026-05-07 20:40 15.50247 -61.41132 7970 ft 109 kts 169°
2026-05-07 20:40 15.49488 -61.41000 7569 ft 110 kts 168°
2026-05-07 20:40 15.48762 -61.40874 7177 ft 106 kts 169°
2026-05-07 20:40 15.48022 -61.40745 6794 ft 109 kts 169°
2026-05-07 20:41 15.47268 -61.40614 6400 ft 109 kts 169°
2026-05-07 20:41 15.46522 -61.40485 5906 ft 109 kts 169°
2026-05-07 20:41 15.45789 -61.40358 5486 ft 106 kts 168°
2026-05-07 20:41 15.45059 -61.40231 5094 ft 107 kts 167°
2026-05-07 20:42 15.44325 -61.40104 4701 ft 108 kts 166°
2026-05-07 20:42 15.43585 -61.39975 4296 ft 110 kts 165°
2026-05-07 20:42 15.42825 -61.39844 3876 ft 109 kts 164°
2026-05-07 20:42 15.42067 -61.39752 3457 ft 109 kts 172°
2026-05-07 20:43 15.41322 -61.39708 3067 ft 105 kts 169°
2026-05-07 20:43 15.40602 -61.39659 2656 ft 104 kts 169°
2026-05-07 20:43 15.39867 -61.39609 2248 ft 107 kts 170°
2026-05-07 20:43 15.39135 -61.39563 1843 ft 102 kts 170°
2026-05-07 20:44 15.38439 -61.39538 1398 ft 100 kts 174°
2026-05-07 20:44 15.37727 -61.39537 1121 ft 98 kts 172°
2026-05-07 20:44 15.37051 -61.39492 778 ft 93 kts 173°
2026-05-07 20:44 15.36358 -61.39457 707 ft 100 kts 181°
2026-05-07 20:45 15.35661 -61.39550 412 ft 103 kts 178°
2026-05-07 20:45 15.35016 -61.39434 292 ft 94 kts 161°
2026-05-07 20:45 15.34389 -61.39272 81 ft 92 kts 166°
2026-05-07 20:45 15.33799 -61.39212 19 ft 66 kts 203°
2026-05-07 20:46 15.33464 -61.39203 16 ft 38 kts 184°
2026-05-07 20:46 15.33305 -61.39182 13 ft 16 kts 154°
2026-05-07 20:46 15.33320 -61.39198 12 ft 17 kts 10°
2026-05-07 20:46 15.33442 -61.39194 15 ft 17 kts
2026-05-07 20:47 15.33564 -61.39206 18 ft 18 kts 354°
2026-05-07 20:47 15.33700 -61.39216 17 ft 20 kts 356°
2026-05-07 20:47 15.33851 -61.39224 23 ft 17 kts 357°
2026-05-07 20:47 15.33908 -61.39207 24 ft 5 kts 68°
2026-05-07 20:48 15.33931 -61.39192 23 ft 8 kts
2026-05-07 20:48 15.33990 -61.39187 24 ft 9 kts 277°
2026-05-07 20:48 15.33961 -61.39199 24 ft 1 kts 128°
2026-05-07 20:48 15.33937 -61.39180 23 ft 5 kts 175°
2026-05-07 20:49 15.33931 -61.39179 23 ft 0 kts 174°